sensor_id;sensor_type;location;lat;lon;timestamp;P1;durP1;ratioP1;P2;durP2;ratioP2
80681;SDS011;70045;40.200;44.582;2023-08-07T00:01:56;7.30;;;2.13;;
80681;SDS011;70045;40.200;44.582;2023-08-07T00:04:21;3.50;;;1.80;;
80681;SDS011;70045;40.200;44.582;2023-08-07T00:06:47;6.00;;;2.28;;
80681;SDS011;70045;40.200;44.582;2023-08-07T00:09:12;8.35;;;2.58;;
80681;SDS011;70045;40.200;44.582;2023-08-07T00:11:40;5.93;;;2.33;;
80681;SDS011;70045;40.200;44.582;2023-08-07T00:14:06;12.32;;;5.80;;
80681;SDS011;70045;40.200;44.582;2023-08-07T00:16:31;9.38;;;3.60;;
80681;SDS011;70045;40.200;44.582;2023-08-07T00:18:57;6.45;;;2.47;;
80681;SDS011;70045;40.200;44.582;2023-08-07T00:21:22;8.35;;;2.38;;
80681;SDS011;70045;40.200;44.582;2023-08-07T00:23:53;5.18;;;1.95;;
80681;SDS011;70045;40.200;44.582;2023-08-07T00:26:18;6.22;;;2.40;;
80681;SDS011;70045;40.200;44.582;2023-08-07T00:28:43;5.95;;;2.33;;
80681;SDS011;70045;40.200;44.582;2023-08-07T00:31:09;4.35;;;1.90;;
80681;SDS011;70045;40.200;44.582;2023-08-07T00:33:34;5.32;;;2.33;;
80681;SDS011;70045;40.200;44.582;2023-08-07T00:36:02;4.53;;;1.95;;
80681;SDS011;70045;40.200;44.582;2023-08-07T00:38:28;6.28;;;2.40;;
80681;SDS011;70045;40.200;44.582;2023-08-07T00:40:53;5.20;;;2.10;;
80681;SDS011;70045;40.200;44.582;2023-08-07T00:43:19;9.95;;;2.22;;
80681;SDS011;70045;40.200;44.582;2023-08-07T00:45:45;7.13;;;2.05;;
80681;SDS011;70045;40.200;44.582;2023-08-07T00:48:14;5.82;;;2.78;;
80681;SDS011;70045;40.200;44.582;2023-08-07T00:53:06;4.25;;;1.98;;
80681;SDS011;70045;40.200;44.582;2023-08-07T00:55:32;5.38;;;2.13;;
80681;SDS011;70045;40.200;44.582;2023-08-07T00:57:58;7.57;;;2.10;;
80681;SDS011;70045;40.200;44.582;2023-08-07T01:00:29;6.03;;;2.10;;
80681;SDS011;70045;40.200;44.582;2023-08-07T01:02:55;5.50;;;2.10;;
80681;SDS011;70045;40.200;44.582;2023-08-07T01:05:22;4.35;;;2.10;;
80681;SDS011;70045;40.200;44.582;2023-08-07T01:07:49;4.40;;;2.15;;
80681;SDS011;70045;40.200;44.582;2023-08-07T01:10:15;8.43;;;2.70;;
80681;SDS011;70045;40.200;44.582;2023-08-07T01:12:47;4.30;;;1.95;;
80681;SDS011;70045;40.200;44.582;2023-08-07T01:15:25;5.10;;;2.10;;
80681;SDS011;70045;40.200;44.582;2023-08-07T01:17:55;8.68;;;2.50;;
80681;SDS011;70045;40.200;44.582;2023-08-07T01:20:22;3.80;;;2.10;;
80681;SDS011;70045;40.200;44.582;2023-08-07T01:22:51;5.03;;;2.13;;
80681;SDS011;70045;40.200;44.582;2023-08-07T01:25:16;12.18;;;4.82;;
80681;SDS011;70045;40.200;44.582;2023-08-07T01:27:44;23.67;;;11.68;;
80681;SDS011;70045;40.200;44.582;2023-08-07T01:30:26;26.75;;;12.20;;
80681;SDS011;70045;40.200;44.582;2023-08-07T01:35:47;29.25;;;12.23;;
80681;SDS011;70045;40.200;44.582;2023-08-07T01:40:42;22.20;;;8.43;;
80681;SDS011;70045;40.200;44.582;2023-08-07T01:43:11;20.98;;;8.50;;
80681;SDS011;70045;40.200;44.582;2023-08-07T01:45:37;18.42;;;8.35;;
80681;SDS011;70045;40.200;44.582;2023-08-07T01:48:02;18.73;;;8.32;;
80681;SDS011;70045;40.200;44.582;2023-08-07T01:50:28;16.58;;;6.53;;
80681;SDS011;70045;40.200;44.582;2023-08-07T01:52:54;15.20;;;6.70;;
80681;SDS011;70045;40.200;44.582;2023-08-07T01:55:22;14.90;;;5.88;;
80681;SDS011;70045;40.200;44.582;2023-08-07T01:57:48;11.73;;;5.35;;
80681;SDS011;70045;40.200;44.582;2023-08-07T02:00:13;14.25;;;5.38;;
80681;SDS011;70045;40.200;44.582;2023-08-07T02:02:39;12.68;;;3.67;;
80681;SDS011;70045;40.200;44.582;2023-08-07T02:05:04;11.52;;;3.78;;
80681;SDS011;70045;40.200;44.582;2023-08-07T02:07:33;10.25;;;3.67;;
80681;SDS011;70045;40.200;44.582;2023-08-07T02:09:58;12.68;;;4.50;;
80681;SDS011;70045;40.200;44.582;2023-08-07T02:12:24;14.63;;;7.07;;
80681;SDS011;70045;40.200;44.582;2023-08-07T02:14:49;13.55;;;7.13;;
80681;SDS011;70045;40.200;44.582;2023-08-07T02:17:14;18.80;;;8.48;;
80681;SDS011;70045;40.200;44.582;2023-08-07T02:19:43;21.38;;;10.00;;
80681;SDS011;70045;40.200;44.582;2023-08-07T02:22:08;33.35;;;19.70;;
80681;SDS011;70045;40.200;44.582;2023-08-07T02:24:33;35.20;;;20.95;;
80681;SDS011;70045;40.200;44.582;2023-08-07T02:26:59;37.45;;;20.95;;
80681;SDS011;70045;40.200;44.582;2023-08-07T02:29:24;34.00;;;18.05;;
80681;SDS011;70045;40.200;44.582;2023-08-07T02:31:52;27.75;;;13.68;;
80681;SDS011;70045;40.200;44.582;2023-08-07T02:34:18;18.23;;;9.40;;
80681;SDS011;70045;40.200;44.582;2023-08-07T02:36:43;16.38;;;6.80;;
80681;SDS011;70045;40.200;44.582;2023-08-07T02:39:08;16.33;;;5.35;;
80681;SDS011;70045;40.200;44.582;2023-08-07T02:41:34;11.55;;;4.30;;
80681;SDS011;70045;40.200;44.582;2023-08-07T02:44:02;11.77;;;4.15;;
80681;SDS011;70045;40.200;44.582;2023-08-07T02:46:27;11.95;;;3.63;;
80681;SDS011;70045;40.200;44.582;2023-08-07T02:48:53;9.18;;;3.05;;
80681;SDS011;70045;40.200;44.582;2023-08-07T02:51:18;7.55;;;3.40;;
80681;SDS011;70045;40.200;44.582;2023-08-07T02:53:43;10.25;;;3.45;;
80681;SDS011;70045;40.200;44.582;2023-08-07T02:56:12;12.13;;;3.13;;
80681;SDS011;70045;40.200;44.582;2023-08-07T02:58:37;17.17;;;3.97;;
80681;SDS011;70045;40.200;44.582;2023-08-07T03:01:03;16.20;;;2.80;;
80681;SDS011;70045;40.200;44.582;2023-08-07T03:03:29;14.88;;;3.20;;
80681;SDS011;70045;40.200;44.582;2023-08-07T03:05:55;15.70;;;2.72;;
80681;SDS011;70045;40.200;44.582;2023-08-07T03:08:23;10.63;;;2.60;;
80681;SDS011;70045;40.200;44.582;2023-08-07T03:10:52;10.68;;;2.03;;
80681;SDS011;70045;40.200;44.582;2023-08-07T03:13:18;5.78;;;2.00;;
80681;SDS011;70045;40.200;44.582;2023-08-07T03:15:44;12.02;;;2.00;;
80681;SDS011;70045;40.200;44.582;2023-08-07T03:18:10;7.22;;;2.35;;
80681;SDS011;70045;40.200;44.582;2023-08-07T03:20:38;10.02;;;2.25;;
80681;SDS011;70045;40.200;44.582;2023-08-07T03:23:03;11.10;;;2.42;;
80681;SDS011;70045;40.200;44.582;2023-08-07T03:25:29;10.40;;;2.72;;
80681;SDS011;70045;40.200;44.582;2023-08-07T03:27:54;16.20;;;3.00;;
80681;SDS011;70045;40.200;44.582;2023-08-07T03:30:19;15.57;;;2.42;;
80681;SDS011;70045;40.200;44.582;2023-08-07T03:32:48;17.02;;;2.97;;
80681;SDS011;70045;40.200;44.582;2023-08-07T03:35:13;13.60;;;2.83;;
80681;SDS011;70045;40.200;44.582;2023-08-07T03:37:38;15.07;;;2.90;;
80681;SDS011;70045;40.200;44.582;2023-08-07T03:40:04;22.83;;;2.97;;
80681;SDS011;70045;40.200;44.582;2023-08-07T03:42:30;14.77;;;2.85;;
80681;SDS011;70045;40.200;44.582;2023-08-07T03:44:58;17.65;;;2.90;;
80681;SDS011;70045;40.200;44.582;2023-08-07T03:47:23;18.15;;;3.03;;
80681;SDS011;70045;40.200;44.582;2023-08-07T03:49:49;16.60;;;2.47;;
80681;SDS011;70045;40.200;44.582;2023-08-07T03:52:15;15.68;;;3.03;;
80681;SDS011;70045;40.200;44.582;2023-08-07T03:54:40;12.00;;;3.08;;
80681;SDS011;70045;40.200;44.582;2023-08-07T03:57:08;14.43;;;2.55;;
80681;SDS011;70045;40.200;44.582;2023-08-07T03:59:34;9.05;;;2.85;;
80681;SDS011;70045;40.200;44.582;2023-08-07T04:01:59;8.50;;;2.50;;
80681;SDS011;70045;40.200;44.582;2023-08-07T04:04:24;11.73;;;3.50;;
80681;SDS011;70045;40.200;44.582;2023-08-07T04:06:50;8.07;;;2.58;;
80681;SDS011;70045;40.200;44.582;2023-08-07T04:09:18;12.48;;;2.63;;
80681;SDS011;70045;40.200;44.582;2023-08-07T04:11:43;7.45;;;2.67;;
80681;SDS011;70045;40.200;44.582;2023-08-07T04:14:09;9.38;;;2.53;;
80681;SDS011;70045;40.200;44.582;2023-08-07T04:16:34;6.28;;;2.30;;
80681;SDS011;70045;40.200;44.582;2023-08-07T04:18:59;10.38;;;2.70;;
80681;SDS011;70045;40.200;44.582;2023-08-07T04:21:28;8.23;;;2.75;;
80681;SDS011;70045;40.200;44.582;2023-08-07T04:23:54;6.90;;;2.60;;
80681;SDS011;70045;40.200;44.582;2023-08-07T04:26:20;11.52;;;3.22;;
80681;SDS011;70045;40.200;44.582;2023-08-07T04:28:45;9.95;;;2.60;;
80681;SDS011;70045;40.200;44.582;2023-08-07T04:31:10;7.35;;;2.38;;
80681;SDS011;70045;40.200;44.582;2023-08-07T04:33:39;8.82;;;2.40;;
80681;SDS011;70045;40.200;44.582;2023-08-07T04:36:04;11.35;;;2.85;;
80681;SDS011;70045;40.200;44.582;2023-08-07T04:38:29;9.73;;;2.67;;
80681;SDS011;70045;40.200;44.582;2023-08-07T04:40:55;7.22;;;2.13;;
80681;SDS011;70045;40.200;44.582;2023-08-07T04:43:20;6.20;;;2.05;;
80681;SDS011;70045;40.200;44.582;2023-08-07T04:45:49;8.40;;;2.42;;
80681;SDS011;70045;40.200;44.582;2023-08-07T04:48:14;3.13;;;1.83;;
80681;SDS011;70045;40.200;44.582;2023-08-07T04:50:40;5.40;;;2.00;;
80681;SDS011;70045;40.200;44.582;2023-08-07T04:53:06;5.57;;;2.05;;
80681;SDS011;70045;40.200;44.582;2023-08-07T04:55:32;5.70;;;1.95;;
80681;SDS011;70045;40.200;44.582;2023-08-07T04:58:00;9.07;;;3.00;;
80681;SDS011;70045;40.200;44.582;2023-08-07T05:00:27;5.80;;;2.22;;
80681;SDS011;70045;40.200;44.582;2023-08-07T05:02:52;5.22;;;1.95;;
80681;SDS011;70045;40.200;44.582;2023-08-07T05:05:18;5.45;;;2.00;;
80681;SDS011;70045;40.200;44.582;2023-08-07T05:07:43;5.80;;;2.30;;
80681;SDS011;70045;40.200;44.582;2023-08-07T05:10:14;7.05;;;2.58;;
80681;SDS011;70045;40.200;44.582;2023-08-07T05:12:39;9.38;;;2.30;;
80681;SDS011;70045;40.200;44.582;2023-08-07T05:15:05;5.18;;;2.20;;
80681;SDS011;70045;40.200;44.582;2023-08-07T05:17:31;6.50;;;2.60;;
80681;SDS011;70045;40.200;44.582;2023-08-07T05:19:57;5.90;;;2.03;;
80681;SDS011;70045;40.200;44.582;2023-08-07T05:22:25;13.40;;;2.85;;
80681;SDS011;70045;40.200;44.582;2023-08-07T05:24:50;6.78;;;2.90;;
80681;SDS011;70045;40.200;44.582;2023-08-07T05:27:16;10.75;;;3.20;;
80681;SDS011;70045;40.200;44.582;2023-08-07T05:29:41;8.52;;;3.40;;
80681;SDS011;70045;40.200;44.582;2023-08-07T05:32:06;9.45;;;3.40;;
80681;SDS011;70045;40.200;44.582;2023-08-07T05:34:35;8.65;;;3.25;;
80681;SDS011;70045;40.200;44.582;2023-08-07T05:37:00;6.63;;;2.88;;
80681;SDS011;70045;40.200;44.582;2023-08-07T05:39:25;7.60;;;2.80;;
80681;SDS011;70045;40.200;44.582;2023-08-07T05:41:51;8.00;;;2.88;;
80681;SDS011;70045;40.200;44.582;2023-08-07T05:44:16;8.05;;;2.63;;
80681;SDS011;70045;40.200;44.582;2023-08-07T05:46:45;8.15;;;2.80;;
80681;SDS011;70045;40.200;44.582;2023-08-07T05:49:10;8.07;;;2.80;;
80681;SDS011;70045;40.200;44.582;2023-08-07T05:51:35;10.52;;;3.10;;
80681;SDS011;70045;40.200;44.582;2023-08-07T05:54:01;9.73;;;3.25;;
80681;SDS011;70045;40.200;44.582;2023-08-07T05:56:26;7.72;;;2.88;;
80681;SDS011;70045;40.200;44.582;2023-08-07T05:58:54;8.48;;;2.80;;
80681;SDS011;70045;40.200;44.582;2023-08-07T06:01:20;6.57;;;2.40;;
80681;SDS011;70045;40.200;44.582;2023-08-07T06:03:45;11.27;;;3.00;;
80681;SDS011;70045;40.200;44.582;2023-08-07T06:06:10;9.10;;;3.05;;
80681;SDS011;70045;40.200;44.582;2023-08-07T06:08:36;7.95;;;2.40;;
80681;SDS011;70045;40.200;44.582;2023-08-07T06:11:04;9.00;;;2.38;;
80681;SDS011;70045;40.200;44.582;2023-08-07T06:13:29;3.63;;;2.10;;
80681;SDS011;70045;40.200;44.582;2023-08-07T06:15:55;7.20;;;2.42;;
80681;SDS011;70045;40.200;44.582;2023-08-07T06:18:20;6.20;;;2.42;;
80681;SDS011;70045;40.200;44.582;2023-08-07T06:20:46;7.85;;;2.55;;
80681;SDS011;70045;40.200;44.582;2023-08-07T06:23:14;9.02;;;2.65;;
80681;SDS011;70045;40.200;44.582;2023-08-07T06:25:39;7.40;;;2.13;;
80681;SDS011;70045;40.200;44.582;2023-08-07T06:28:05;6.38;;;2.30;;
80681;SDS011;70045;40.200;44.582;2023-08-07T06:30:31;7.55;;;2.30;;
80681;SDS011;70045;40.200;44.582;2023-08-07T06:32:56;8.80;;;2.60;;
80681;SDS011;70045;40.200;44.582;2023-08-07T06:35:24;8.40;;;2.30;;
80681;SDS011;70045;40.200;44.582;2023-08-07T06:37:50;5.38;;;2.60;;
80681;SDS011;70045;40.200;44.582;2023-08-07T06:40:16;5.78;;;2.33;;
80681;SDS011;70045;40.200;44.582;2023-08-07T06:42:41;8.25;;;2.30;;
80681;SDS011;70045;40.200;44.582;2023-08-07T06:45:07;8.95;;;2.33;;
80681;SDS011;70045;40.200;44.582;2023-08-07T06:47:35;7.65;;;2.63;;
80681;SDS011;70045;40.200;44.582;2023-08-07T06:50:01;11.02;;;2.78;;
80681;SDS011;70045;40.200;44.582;2023-08-07T06:52:26;6.03;;;2.33;;
80681;SDS011;70045;40.200;44.582;2023-08-07T06:54:51;6.45;;;2.20;;
80681;SDS011;70045;40.200;44.582;2023-08-07T06:57:17;5.75;;;2.28;;
80681;SDS011;70045;40.200;44.582;2023-08-07T06:59:45;9.18;;;2.72;;
80681;SDS011;70045;40.200;44.582;2023-08-07T07:02:10;7.63;;;2.25;;
80681;SDS011;70045;40.200;44.582;2023-08-07T07:04:36;10.05;;;2.67;;
80681;SDS011;70045;40.200;44.582;2023-08-07T07:07:01;7.82;;;2.70;;
80681;SDS011;70045;40.200;44.582;2023-08-07T07:09:27;7.13;;;2.72;;
80681;SDS011;70045;40.200;44.582;2023-08-07T07:11:55;7.38;;;2.65;;
80681;SDS011;70045;40.200;44.582;2023-08-07T07:14:21;6.05;;;2.95;;
80681;SDS011;70045;40.200;44.582;2023-08-07T07:16:46;7.05;;;2.70;;
80681;SDS011;70045;40.200;44.582;2023-08-07T07:19:12;11.43;;;2.50;;
80681;SDS011;70045;40.200;44.582;2023-08-07T07:21:37;5.38;;;2.50;;
80681;SDS011;70045;40.200;44.582;2023-08-07T07:24:08;8.85;;;2.67;;
80681;SDS011;70045;40.200;44.582;2023-08-07T07:26:34;8.07;;;2.70;;
80681;SDS011;70045;40.200;44.582;2023-08-07T07:29:03;10.07;;;2.92;;
80681;SDS011;70045;40.200;44.582;2023-08-07T07:31:31;7.78;;;2.83;;
80681;SDS011;70045;40.200;44.582;2023-08-07T07:33:56;7.22;;;2.63;;
80681;SDS011;70045;40.200;44.582;2023-08-07T07:36:24;10.90;;;2.53;;
80681;SDS011;70045;40.200;44.582;2023-08-07T07:38:50;8.40;;;3.28;;
80681;SDS011;70045;40.200;44.582;2023-08-07T07:41:15;4.95;;;2.60;;
80681;SDS011;70045;40.200;44.582;2023-08-07T07:43:41;7.35;;;2.60;;
80681;SDS011;70045;40.200;44.582;2023-08-07T07:46:07;6.07;;;3.10;;
80681;SDS011;70045;40.200;44.582;2023-08-07T07:48:35;7.53;;;2.60;;
80681;SDS011;70045;40.200;44.582;2023-08-07T07:51:01;7.40;;;2.65;;
80681;SDS011;70045;40.200;44.582;2023-08-07T07:53:27;9.05;;;2.78;;
80681;SDS011;70045;40.200;44.582;2023-08-07T07:55:53;9.10;;;2.72;;
80681;SDS011;70045;40.200;44.582;2023-08-07T07:58:20;8.23;;;2.95;;
80681;SDS011;70045;40.200;44.582;2023-08-07T08:00:48;7.68;;;2.45;;
80681;SDS011;70045;40.200;44.582;2023-08-07T08:03:14;7.90;;;2.38;;
80681;SDS011;70045;40.200;44.582;2023-08-07T08:05:39;7.43;;;2.60;;
80681;SDS011;70045;40.200;44.582;2023-08-07T08:08:05;5.65;;;2.60;;
80681;SDS011;70045;40.200;44.582;2023-08-07T08:10:31;7.88;;;2.90;;
80681;SDS011;70045;40.200;44.582;2023-08-07T08:12:59;8.00;;;2.78;;
80681;SDS011;70045;40.200;44.582;2023-08-07T08:15:25;9.45;;;2.53;;
80681;SDS011;70045;40.200;44.582;2023-08-07T08:17:51;10.35;;;2.80;;
80681;SDS011;70045;40.200;44.582;2023-08-07T08:20:17;11.18;;;2.85;;
80681;SDS011;70045;40.200;44.582;2023-08-07T08:22:42;10.02;;;3.03;;
80681;SDS011;70045;40.200;44.582;2023-08-07T08:25:10;7.22;;;2.75;;
80681;SDS011;70045;40.200;44.582;2023-08-07T08:27:36;7.03;;;2.80;;
80681;SDS011;70045;40.200;44.582;2023-08-07T08:30:02;7.35;;;2.72;;
80681;SDS011;70045;40.200;44.582;2023-08-07T08:32:27;6.32;;;2.60;;
80681;SDS011;70045;40.200;44.582;2023-08-07T08:34:55;7.50;;;2.70;;
80681;SDS011;70045;40.200;44.582;2023-08-07T08:37:24;8.10;;;2.72;;
80681;SDS011;70045;40.200;44.582;2023-08-07T08:39:49;10.07;;;2.95;;
80681;SDS011;70045;40.200;44.582;2023-08-07T08:42:15;11.63;;;3.10;;
80681;SDS011;70045;40.200;44.582;2023-08-07T08:44:40;8.65;;;2.58;;
80681;SDS011;70045;40.200;44.582;2023-08-07T08:47:17;8.18;;;3.33;;
80681;SDS011;70045;40.200;44.582;2023-08-07T08:49:47;8.93;;;2.85;;
80681;SDS011;70045;40.200;44.582;2023-08-07T08:52:15;7.32;;;3.00;;
80681;SDS011;70045;40.200;44.582;2023-08-07T08:54:41;6.72;;;2.63;;
80681;SDS011;70045;40.200;44.582;2023-08-07T08:57:08;7.95;;;2.72;;
80681;SDS011;70045;40.200;44.582;2023-08-07T08:59:34;9.10;;;3.00;;
80681;SDS011;70045;40.200;44.582;2023-08-07T09:02:02;5.72;;;3.20;;
80681;SDS011;70045;40.200;44.582;2023-08-07T09:04:28;11.00;;;3.38;;
80681;SDS011;70045;40.200;44.582;2023-08-07T09:06:54;12.15;;;2.60;;
80681;SDS011;70045;40.200;44.582;2023-08-07T09:09:20;5.85;;;2.78;;
80681;SDS011;70045;40.200;44.582;2023-08-07T09:11:47;5.75;;;2.40;;
80681;SDS011;70045;40.200;44.582;2023-08-07T09:14:16;5.65;;;2.30;;
80681;SDS011;70045;40.200;44.582;2023-08-07T09:16:45;7.68;;;2.60;;
80681;SDS011;70045;40.200;44.582;2023-08-07T09:19:13;7.32;;;2.38;;
80681;SDS011;70045;40.200;44.582;2023-08-07T09:21:38;6.00;;;2.50;;
80681;SDS011;70045;40.200;44.582;2023-08-07T09:24:06;6.88;;;2.20;;
80681;SDS011;70045;40.200;44.582;2023-08-07T09:26:34;7.65;;;2.53;;
80681;SDS011;70045;40.200;44.582;2023-08-07T09:29:00;11.07;;;2.65;;
80681;SDS011;70045;40.200;44.582;2023-08-07T09:31:26;6.45;;;2.92;;
80681;SDS011;70045;40.200;44.582;2023-08-07T09:33:52;6.78;;;2.53;;
80681;SDS011;70045;40.200;44.582;2023-08-07T09:36:18;8.98;;;2.60;;
80681;SDS011;70045;40.200;44.582;2023-08-07T09:38:51;9.27;;;2.33;;
80681;SDS011;70045;40.200;44.582;2023-08-07T09:41:17;7.05;;;2.38;;
80681;SDS011;70045;40.200;44.582;2023-08-07T09:43:43;10.05;;;2.63;;
80681;SDS011;70045;40.200;44.582;2023-08-07T09:46:09;10.20;;;2.70;;
80681;SDS011;70045;40.200;44.582;2023-08-07T09:48:41;9.63;;;2.40;;
80681;SDS011;70045;40.200;44.582;2023-08-07T09:51:10;6.20;;;2.47;;
80681;SDS011;70045;40.200;44.582;2023-08-07T09:53:36;6.07;;;2.30;;
80681;SDS011;70045;40.200;44.582;2023-08-07T09:56:02;7.30;;;2.65;;
80681;SDS011;70045;40.200;44.582;2023-08-07T09:58:28;7.03;;;2.47;;
80681;SDS011;70045;40.200;44.582;2023-08-07T10:00:54;7.55;;;2.75;;
80681;SDS011;70045;40.200;44.582;2023-08-07T10:03:22;6.63;;;2.35;;
80681;SDS011;70045;40.200;44.582;2023-08-07T10:05:48;7.97;;;2.30;;
80681;SDS011;70045;40.200;44.582;2023-08-07T10:08:14;7.53;;;2.33;;
80681;SDS011;70045;40.200;44.582;2023-08-07T10:10:40;6.28;;;2.40;;
80681;SDS011;70045;40.200;44.582;2023-08-07T10:13:06;13.95;;;2.88;;
80681;SDS011;70045;40.200;44.582;2023-08-07T10:15:35;14.90;;;3.00;;
80681;SDS011;70045;40.200;44.582;2023-08-07T10:18:00;10.70;;;2.80;;
80681;SDS011;70045;40.200;44.582;2023-08-07T10:20:29;18.83;;;3.33;;
80681;SDS011;70045;40.200;44.582;2023-08-07T10:22:57;17.48;;;2.70;;
80681;SDS011;70045;40.200;44.582;2023-08-07T10:25:29;15.68;;;3.90;;
80681;SDS011;70045;40.200;44.582;2023-08-07T10:28:03;15.20;;;3.50;;
80681;SDS011;70045;40.200;44.582;2023-08-07T10:30:33;8.90;;;2.67;;
80681;SDS011;70045;40.200;44.582;2023-08-07T10:32:59;10.18;;;2.20;;
80681;SDS011;70045;40.200;44.582;2023-08-07T10:35:31;8.80;;;3.00;;
80681;SDS011;70045;40.200;44.582;2023-08-07T10:43:23;9.88;;;2.70;;
80681;SDS011;70045;40.200;44.582;2023-08-07T10:45:49;10.45;;;2.20;;
80681;SDS011;70045;40.200;44.582;2023-08-07T10:48:18;4.80;;;2.03;;
80681;SDS011;70045;40.200;44.582;2023-08-07T10:51:03;5.22;;;2.72;;
80681;SDS011;70045;40.200;44.582;2023-08-07T10:53:35;5.63;;;1.80;;
80681;SDS011;70045;40.200;44.582;2023-08-07T10:56:07;4.03;;;1.77;;
80681;SDS011;70045;40.200;44.582;2023-08-07T10:58:40;3.88;;;2.10;;
80681;SDS011;70045;40.200;44.582;2023-08-07T11:04:00;5.32;;;1.90;;
80681;SDS011;70045;40.200;44.582;2023-08-07T11:06:31;7.22;;;2.13;;
80681;SDS011;70045;40.200;44.582;2023-08-07T11:09:03;3.70;;;2.20;;
80681;SDS011;70045;40.200;44.582;2023-08-07T11:11:39;8.30;;;2.25;;
80681;SDS011;70045;40.200;44.582;2023-08-07T11:14:06;7.38;;;2.20;;
80681;SDS011;70045;40.200;44.582;2023-08-07T11:16:33;10.07;;;2.53;;
80681;SDS011;70045;40.200;44.582;2023-08-07T11:18:59;6.00;;;2.85;;
80681;SDS011;70045;40.200;44.582;2023-08-07T11:21:28;8.93;;;2.30;;
80681;SDS011;70045;40.200;44.582;2023-08-07T11:23:55;6.05;;;2.10;;
80681;SDS011;70045;40.200;44.582;2023-08-07T11:26:20;8.73;;;3.40;;
80681;SDS011;70045;40.200;44.582;2023-08-07T11:28:46;7.60;;;3.17;;
80681;SDS011;70045;40.200;44.582;2023-08-07T11:31:11;13.40;;;3.03;;
80681;SDS011;70045;40.200;44.582;2023-08-07T11:33:40;14.70;;;3.45;;
80681;SDS011;70045;40.200;44.582;2023-08-07T11:36:12;8.30;;;3.38;;
80681;SDS011;70045;40.200;44.582;2023-08-07T11:38:41;14.18;;;3.00;;
80681;SDS011;70045;40.200;44.582;2023-08-07T11:41:08;8.70;;;2.85;;
80681;SDS011;70045;40.200;44.582;2023-08-07T11:43:34;9.90;;;2.42;;
80681;SDS011;70045;40.200;44.582;2023-08-07T11:46:05;9.18;;;2.60;;
80681;SDS011;70045;40.200;44.582;2023-08-07T11:48:32;9.65;;;2.92;;
80681;SDS011;70045;40.200;44.582;2023-08-07T11:50:59;5.35;;;2.53;;
80681;SDS011;70045;40.200;44.582;2023-08-07T11:53:30;5.45;;;2.53;;
80681;SDS011;70045;40.200;44.582;2023-08-07T11:55:58;5.30;;;1.90;;
80681;SDS011;70045;40.200;44.582;2023-08-07T11:58:28;5.95;;;1.95;;
80681;SDS011;70045;40.200;44.582;2023-08-07T12:01:01;5.75;;;2.20;;
80681;SDS011;70045;40.200;44.582;2023-08-07T12:03:29;3.00;;;1.63;;
80681;SDS011;70045;40.200;44.582;2023-08-07T12:05:56;2.60;;;1.45;;
80681;SDS011;70045;40.200;44.582;2023-08-07T12:08:23;3.05;;;1.33;;
80681;SDS011;70045;40.200;44.582;2023-08-07T12:10:53;2.58;;;1.45;;
80681;SDS011;70045;40.200;44.582;2023-08-07T12:13:20;2.50;;;1.40;;
80681;SDS011;70045;40.200;44.582;2023-08-07T12:15:50;2.15;;;1.58;;
80681;SDS011;70045;40.200;44.582;2023-08-07T12:20:43;6.63;;;1.67;;
80681;SDS011;70045;40.200;44.582;2023-08-07T12:23:15;1.98;;;1.25;;
80681;SDS011;70045;40.200;44.582;2023-08-07T12:25:41;4.85;;;2.00;;
80681;SDS011;70045;40.200;44.582;2023-08-07T12:28:07;4.90;;;1.70;;
80681;SDS011;70045;40.200;44.582;2023-08-07T12:30:36;2.63;;;1.73;;
80681;SDS011;70045;40.200;44.582;2023-08-07T12:33:02;5.07;;;1.58;;
80681;SDS011;70045;40.200;44.582;2023-08-07T12:35:31;2.58;;;1.65;;
80681;SDS011;70045;40.200;44.582;2023-08-07T12:37:56;5.10;;;1.85;;
80681;SDS011;70045;40.200;44.582;2023-08-07T12:40:22;6.15;;;1.50;;
80681;SDS011;70045;40.200;44.582;2023-08-07T12:42:50;11.25;;;1.50;;
80681;SDS011;70045;40.200;44.582;2023-08-07T12:45:15;5.18;;;1.70;;
80681;SDS011;70045;40.200;44.582;2023-08-07T12:47:44;2.45;;;1.50;;
80681;SDS011;70045;40.200;44.582;2023-08-07T12:50:10;2.58;;;1.33;;
80681;SDS011;70045;40.200;44.582;2023-08-07T12:52:35;3.08;;;1.42;;
80681;SDS011;70045;40.200;44.582;2023-08-07T12:55:01;6.70;;;1.73;;
80681;SDS011;70045;40.200;44.582;2023-08-07T12:57:27;6.22;;;1.90;;
80681;SDS011;70045;40.200;44.582;2023-08-07T12:59:55;6.72;;;1.80;;
80681;SDS011;70045;40.200;44.582;2023-08-07T13:02:20;4.38;;;1.70;;
80681;SDS011;70045;40.200;44.582;2023-08-07T13:04:46;6.45;;;2.10;;
80681;SDS011;70045;40.200;44.582;2023-08-07T13:07:11;4.95;;;1.70;;
80681;SDS011;70045;40.200;44.582;2023-08-07T13:09:37;5.80;;;1.90;;
80681;SDS011;70045;40.200;44.582;2023-08-07T13:12:06;4.32;;;2.22;;
80681;SDS011;70045;40.200;44.582;2023-08-07T13:14:31;8.93;;;3.17;;
80681;SDS011;70045;40.200;44.582;2023-08-07T13:16:57;7.70;;;2.40;;
80681;SDS011;70045;40.200;44.582;2023-08-07T13:19:22;4.78;;;1.83;;
80681;SDS011;70045;40.200;44.582;2023-08-07T13:21:50;4.35;;;1.92;;
80681;SDS011;70045;40.200;44.582;2023-08-07T13:24:18;8.35;;;2.17;;
80681;SDS011;70045;40.200;44.582;2023-08-07T13:29:09;5.40;;;2.10;;
80681;SDS011;70045;40.200;44.582;2023-08-07T13:31:35;5.63;;;2.13;;
80681;SDS011;70045;40.200;44.582;2023-08-07T13:34:01;6.85;;;2.35;;
80681;SDS011;70045;40.200;44.582;2023-08-07T13:36:29;9.77;;;2.30;;
80681;SDS011;70045;40.200;44.582;2023-08-07T13:38:54;5.82;;;1.80;;
80681;SDS011;70045;40.200;44.582;2023-08-07T13:41:19;3.97;;;2.20;;
80681;SDS011;70045;40.200;44.582;2023-08-07T13:43:45;6.47;;;2.00;;
80681;SDS011;70045;40.200;44.582;2023-08-07T13:46:10;7.88;;;2.15;;
80681;SDS011;70045;40.200;44.582;2023-08-07T13:48:38;4.38;;;1.95;;
80681;SDS011;70045;40.200;44.582;2023-08-07T13:51:04;5.18;;;2.20;;
80681;SDS011;70045;40.200;44.582;2023-08-07T13:53:29;6.55;;;1.83;;
80681;SDS011;70045;40.200;44.582;2023-08-07T13:55:57;8.13;;;2.70;;
80681;SDS011;70045;40.200;44.582;2023-08-07T13:58:22;4.63;;;1.85;;
80681;SDS011;70045;40.200;44.582;2023-08-07T14:00:50;5.75;;;2.20;;
80681;SDS011;70045;40.200;44.582;2023-08-07T14:03:16;8.75;;;2.83;;
80681;SDS011;70045;40.200;44.582;2023-08-07T14:05:41;5.65;;;2.35;;
80681;SDS011;70045;40.200;44.582;2023-08-07T14:08:07;6.88;;;2.35;;
80681;SDS011;70045;40.200;44.582;2023-08-07T14:10:32;4.45;;;1.98;;
80681;SDS011;70045;40.200;44.582;2023-08-07T14:13:00;10.65;;;2.40;;
80681;SDS011;70045;40.200;44.582;2023-08-07T14:15:26;11.20;;;2.60;;
80681;SDS011;70045;40.200;44.582;2023-08-07T14:17:52;10.98;;;1.90;;
80681;SDS011;70045;40.200;44.582;2023-08-07T14:20:17;7.22;;;1.77;;
80681;SDS011;70045;40.200;44.582;2023-08-07T14:22:42;5.80;;;2.58;;
80681;SDS011;70045;40.200;44.582;2023-08-07T14:25:10;6.80;;;1.83;;
80681;SDS011;70045;40.200;44.582;2023-08-07T14:27:36;3.40;;;2.30;;
80681;SDS011;70045;40.200;44.582;2023-08-07T14:30:02;6.78;;;2.30;;
80681;SDS011;70045;40.200;44.582;2023-08-07T14:32:27;6.57;;;2.00;;
80681;SDS011;70045;40.200;44.582;2023-08-07T14:34:53;5.22;;;1.80;;
80681;SDS011;70045;40.200;44.582;2023-08-07T14:37:21;5.55;;;1.85;;
80681;SDS011;70045;40.200;44.582;2023-08-07T14:39:46;7.55;;;1.92;;
80681;SDS011;70045;40.200;44.582;2023-08-07T14:42:12;9.40;;;2.10;;
80681;SDS011;70045;40.200;44.582;2023-08-07T14:44:37;7.22;;;2.25;;
80681;SDS011;70045;40.200;44.582;2023-08-07T14:47:02;3.45;;;1.90;;
80681;SDS011;70045;40.200;44.582;2023-08-07T14:49:31;7.80;;;2.03;;